sensor_id;sensor_type;location;lat;lon;timestamp;P1;durP1;ratioP1;P2;durP2;ratioP2
57903;SDS011;43720;47.462;19.030;2022-08-18T04:16:17;13.48;;;7.15;;
57903;SDS011;43720;47.462;19.030;2022-08-18T04:19:19;13.70;;;7.00;;
57903;SDS011;43720;47.462;19.030;2022-08-18T04:22:28;14.02;;;7.03;;
57903;SDS011;43720;47.462;19.030;2022-08-18T04:25:34;9.77;;;7.40;;
57903;SDS011;43720;47.462;19.030;2022-08-18T04:28:36;11.63;;;7.75;;
57903;SDS011;43720;47.462;19.030;2022-08-18T04:31:39;10.73;;;6.97;;
57903;SDS011;43720;47.462;19.030;2022-08-18T04:34:42;12.43;;;7.50;;
57903;SDS011;43720;47.462;19.030;2022-08-18T04:37:45;9.82;;;6.95;;
57903;SDS011;43720;47.462;19.030;2022-08-18T04:40:47;16.60;;;8.27;;
57903;SDS011;43720;47.462;19.030;2022-08-18T04:43:50;13.32;;;8.15;;
57903;SDS011;43720;47.462;19.030;2022-08-18T04:46:54;12.18;;;7.22;;
57903;SDS011;43720;47.462;19.030;2022-08-18T04:49:56;16.02;;;8.05;;
57903;SDS011;43720;47.462;19.030;2022-08-18T04:53:01;13.52;;;7.72;;
57903;SDS011;43720;47.462;19.030;2022-08-18T04:56:23;13.70;;;7.12;;
57903;SDS011;43720;47.462;19.030;2022-08-18T04:59:31;11.80;;;7.65;;
57903;SDS011;43720;47.462;19.030;2022-08-18T05:02:33;14.68;;;7.62;;
57903;SDS011;43720;47.462;19.030;2022-08-18T05:05:36;10.52;;;7.07;;
57903;SDS011;43720;47.462;19.030;2022-08-18T05:08:38;11.52;;;7.37;;
57903;SDS011;43720;47.462;19.030;2022-08-18T05:11:43;14.70;;;7.82;;
57903;SDS011;43720;47.462;19.030;2022-08-18T05:14:46;14.68;;;8.30;;
57903;SDS011;43720;47.462;19.030;2022-08-18T05:17:49;12.52;;;7.20;;
57903;SDS011;43720;47.462;19.030;2022-08-18T05:20:52;10.48;;;7.10;;
57903;SDS011;43720;47.462;19.030;2022-08-18T05:23:58;11.35;;;7.37;;
57903;SDS011;43720;47.462;19.030;2022-08-18T05:27:01;11.02;;;7.10;;
57903;SDS011;43720;47.462;19.030;2022-08-18T05:30:05;9.98;;;7.45;;
57903;SDS011;43720;47.462;19.030;2022-08-18T05:33:08;11.73;;;7.68;;
57903;SDS011;43720;47.462;19.030;2022-08-18T05:39:55;13.95;;;7.95;;
57903;SDS011;43720;47.462;19.030;2022-08-18T05:43:01;12.40;;;7.57;;
57903;SDS011;43720;47.462;19.030;2022-08-18T05:46:05;13.35;;;8.07;;
57903;SDS011;43720;47.462;19.030;2022-08-18T05:49:09;10.20;;;7.65;;
57903;SDS011;43720;47.462;19.030;2022-08-18T05:55:49;11.10;;;7.87;;
57903;SDS011;43720;47.462;19.030;2022-08-18T05:59:36;14.38;;;8.55;;
57903;SDS011;43720;47.462;19.030;2022-08-18T06:02:43;13.07;;;8.20;;
57903;SDS011;43720;47.462;19.030;2022-08-18T06:05:57;13.68;;;7.55;;
57903;SDS011;43720;47.462;19.030;2022-08-18T06:12:37;13.50;;;7.85;;
57903;SDS011;43720;47.462;19.030;2022-08-18T06:29:35;13.57;;;8.13;;
57903;SDS011;43720;47.462;19.030;2022-08-18T06:35:49;13.70;;;7.78;;
57903;SDS011;43720;47.462;19.030;2022-08-18T06:42:37;17.95;;;7.95;;
57903;SDS011;43720;47.462;19.030;2022-08-18T06:45:42;15.15;;;8.32;;
57903;SDS011;43720;47.462;19.030;2022-08-18T06:48:52;11.88;;;7.35;;
57903;SDS011;43720;47.462;19.030;2022-08-18T06:51:57;13.02;;;7.32;;
57903;SDS011;43720;47.462;19.030;2022-08-18T06:55:00;12.88;;;7.53;;
57903;SDS011;43720;47.462;19.030;2022-08-18T07:01:18;13.55;;;7.82;;
57903;SDS011;43720;47.462;19.030;2022-08-18T07:04:30;10.60;;;7.28;;
57903;SDS011;43720;47.462;19.030;2022-08-18T07:08:05;18.52;;;8.20;;
57903;SDS011;43720;47.462;19.030;2022-08-18T07:11:37;13.62;;;7.30;;
57903;SDS011;43720;47.462;19.030;2022-08-18T07:14:45;9.85;;;6.78;;
57903;SDS011;43720;47.462;19.030;2022-08-18T07:17:51;13.25;;;7.12;;
57903;SDS011;43720;47.462;19.030;2022-08-18T07:21:05;12.10;;;6.37;;
57903;SDS011;43720;47.462;19.030;2022-08-18T07:27:39;12.27;;;7.12;;
57903;SDS011;43720;47.462;19.030;2022-08-18T07:30:47;13.45;;;6.53;;
57903;SDS011;43720;47.462;19.030;2022-08-18T07:34:11;8.13;;;6.30;;
57903;SDS011;43720;47.462;19.030;2022-08-18T07:37:18;16.45;;;7.00;;
57903;SDS011;43720;47.462;19.030;2022-08-18T07:40:37;9.45;;;5.93;;
57903;SDS011;43720;47.462;19.030;2022-08-18T07:43:51;10.55;;;6.68;;
57903;SDS011;43720;47.462;19.030;2022-08-18T07:47:03;9.98;;;6.70;;
57903;SDS011;43720;47.462;19.030;2022-08-18T07:50:11;14.27;;;6.68;;
57903;SDS011;43720;47.462;19.030;2022-08-18T07:53:46;12.52;;;6.90;;
57903;SDS011;43720;47.462;19.030;2022-08-18T07:57:03;14.05;;;7.12;;
57903;SDS011;43720;47.462;19.030;2022-08-18T08:00:27;15.52;;;6.37;;
57903;SDS011;43720;47.462;19.030;2022-08-18T08:07:29;9.23;;;6.45;;
57903;SDS011;43720;47.462;19.030;2022-08-18T08:10:53;11.88;;;7.40;;
57903;SDS011;43720;47.462;19.030;2022-08-18T08:14:40;11.45;;;6.47;;
57903;SDS011;43720;47.462;19.030;2022-08-18T08:17:53;12.52;;;6.70;;
57903;SDS011;43720;47.462;19.030;2022-08-18T08:21:18;10.68;;;6.37;;
57903;SDS011;43720;47.462;19.030;2022-08-18T08:24:29;10.95;;;6.47;;
57903;SDS011;43720;47.462;19.030;2022-08-18T08:31:31;12.40;;;7.25;;
57903;SDS011;43720;47.462;19.030;2022-08-18T08:37:59;11.93;;;8.00;;
57903;SDS011;43720;47.462;19.030;2022-08-18T08:41:35;10.73;;;6.90;;
57903;SDS011;43720;47.462;19.030;2022-08-18T08:44:43;8.80;;;6.03;;
57903;SDS011;43720;47.462;19.030;2022-08-18T08:54:39;11.82;;;6.75;;
57903;SDS011;43720;47.462;19.030;2022-08-18T08:57:52;10.43;;;6.03;;
57903;SDS011;43720;47.462;19.030;2022-08-18T09:01:02;9.00;;;6.30;;
57903;SDS011;43720;47.462;19.030;2022-08-18T09:04:40;6.82;;;5.22;;
57903;SDS011;43720;47.462;19.030;2022-08-18T09:08:19;9.73;;;6.32;;
57903;SDS011;43720;47.462;19.030;2022-08-18T09:18:25;8.18;;;6.40;;
57903;SDS011;43720;47.462;19.030;2022-08-18T09:21:46;6.80;;;5.68;;
57903;SDS011;43720;47.462;19.030;2022-08-18T09:24:51;10.95;;;6.07;;
57903;SDS011;43720;47.462;19.030;2022-08-18T09:31:16;11.75;;;6.70;;
57903;SDS011;43720;47.462;19.030;2022-08-18T09:34:27;10.82;;;5.95;;
57903;SDS011;43720;47.462;19.030;2022-08-18T09:50:56;11.30;;;5.33;;
57903;SDS011;43720;47.462;19.030;2022-08-18T09:54:30;9.52;;;4.85;;
57903;SDS011;43720;47.462;19.030;2022-08-18T09:57:35;8.30;;;4.97;;
57903;SDS011;43720;47.462;19.030;2022-08-18T10:00:45;8.77;;;5.68;;
57903;SDS011;43720;47.462;19.030;2022-08-18T10:04:29;9.70;;;5.10;;
57903;SDS011;43720;47.462;19.030;2022-08-18T10:21:08;9.23;;;4.22;;
